sensor_id;sensor_type;location;lat;lon;timestamp;P1;durP1;ratioP1;P2;durP2;ratioP2
35084;SDS011;21267;51.032;6.998;2023-04-06T00:01:39;19.00;;;10.90;;
35084;SDS011;21267;51.032;6.998;2023-04-06T00:04:06;12.43;;;8.90;;
35084;SDS011;21267;51.032;6.998;2023-04-06T00:06:34;15.15;;;9.90;;
35084;SDS011;21267;51.032;6.998;2023-04-06T00:09:01;11.60;;;8.35;;
35084;SDS011;21267;51.032;6.998;2023-04-06T00:11:27;11.95;;;8.60;;
35084;SDS011;21267;51.032;6.998;2023-04-06T00:13:54;15.35;;;9.25;;
35084;SDS011;21267;51.032;6.998;2023-04-06T00:16:21;11.27;;;8.93;;
35084;SDS011;21267;51.032;6.998;2023-04-06T00:18:50;13.98;;;10.20;;
35084;SDS011;21267;51.032;6.998;2023-04-06T00:21:17;17.55;;;10.30;;
35084;SDS011;21267;51.032;6.998;2023-04-06T00:23:43;14.48;;;10.15;;
35084;SDS011;21267;51.032;6.998;2023-04-06T00:26:13;12.98;;;9.65;;
35084;SDS011;21267;51.032;6.998;2023-04-06T00:28:39;13.75;;;9.07;;
35084;SDS011;21267;51.032;6.998;2023-04-06T00:31:06;17.10;;;9.95;;
35084;SDS011;21267;51.032;6.998;2023-04-06T00:33:33;16.65;;;9.88;;
35084;SDS011;21267;51.032;6.998;2023-04-06T00:35:59;16.65;;;11.25;;
35084;SDS011;21267;51.032;6.998;2023-04-06T00:38:27;13.57;;;8.88;;
35084;SDS011;21267;51.032;6.998;2023-04-06T00:40:53;13.60;;;9.20;;
35084;SDS011;21267;51.032;6.998;2023-04-06T00:43:20;14.05;;;9.77;;
35084;SDS011;21267;51.032;6.998;2023-04-06T00:45:48;14.45;;;10.10;;
35084;SDS011;21267;51.032;6.998;2023-04-06T00:48:15;17.00;;;10.23;;
35084;SDS011;21267;51.032;6.998;2023-04-06T00:50:42;14.48;;;9.68;;
35084;SDS011;21267;51.032;6.998;2023-04-06T00:53:09;14.50;;;10.20;;
35084;SDS011;21267;51.032;6.998;2023-04-06T00:55:36;13.15;;;9.55;;
35084;SDS011;21267;51.032;6.998;2023-04-06T00:58:04;11.57;;;9.40;;
35084;SDS011;21267;51.032;6.998;2023-04-06T01:00:31;12.38;;;9.43;;
35084;SDS011;21267;51.032;6.998;2023-04-06T01:02:58;15.48;;;9.82;;
35084;SDS011;21267;51.032;6.998;2023-04-06T01:05:25;11.90;;;9.10;;
35084;SDS011;21267;51.032;6.998;2023-04-06T01:07:52;14.82;;;9.73;;
35084;SDS011;21267;51.032;6.998;2023-04-06T01:10:22;13.50;;;8.85;;
35084;SDS011;21267;51.032;6.998;2023-04-06T01:12:55;15.20;;;9.70;;
35084;SDS011;21267;51.032;6.998;2023-04-06T01:15:22;14.15;;;10.07;;
35084;SDS011;21267;51.032;6.998;2023-04-06T01:20:17;13.10;;;9.47;;
35084;SDS011;21267;51.032;6.998;2023-04-06T01:22:44;13.68;;;9.85;;
35084;SDS011;21267;51.032;6.998;2023-04-06T01:25:11;16.63;;;11.32;;
35084;SDS011;21267;51.032;6.998;2023-04-06T01:27:37;12.27;;;9.93;;
35084;SDS011;21267;51.032;6.998;2023-04-06T01:30:04;13.27;;;9.55;;
35084;SDS011;21267;51.032;6.998;2023-04-06T01:34:59;13.68;;;9.77;;
35084;SDS011;21267;51.032;6.998;2023-04-06T01:37:25;15.13;;;9.52;;
35084;SDS011;21267;51.032;6.998;2023-04-06T01:39:52;14.80;;;10.23;;
35084;SDS011;21267;51.032;6.998;2023-04-06T01:42:19;16.40;;;10.95;;
35084;SDS011;21267;51.032;6.998;2023-04-06T01:44:46;14.30;;;9.80;;
35084;SDS011;21267;51.032;6.998;2023-04-06T01:47:12;14.77;;;10.27;;
35084;SDS011;21267;51.032;6.998;2023-04-06T01:49:39;17.38;;;8.90;;
35084;SDS011;21267;51.032;6.998;2023-04-06T01:52:05;17.33;;;12.82;;
35084;SDS011;21267;51.032;6.998;2023-04-06T01:54:32;19.52;;;10.48;;
35084;SDS011;21267;51.032;6.998;2023-04-06T01:56:59;13.93;;;9.90;;
35084;SDS011;21267;51.032;6.998;2023-04-06T01:59:26;14.35;;;9.20;;
35084;SDS011;21267;51.032;6.998;2023-04-06T02:01:52;12.23;;;8.73;;
35084;SDS011;21267;51.032;6.998;2023-04-06T02:04:19;13.68;;;9.88;;
35084;SDS011;21267;51.032;6.998;2023-04-06T02:06:46;12.75;;;9.50;;
35084;SDS011;21267;51.032;6.998;2023-04-06T02:09:13;13.50;;;9.60;;
35084;SDS011;21267;51.032;6.998;2023-04-06T02:11:40;12.50;;;9.10;;
35084;SDS011;21267;51.032;6.998;2023-04-06T02:14:07;13.20;;;9.57;;
35084;SDS011;21267;51.032;6.998;2023-04-06T02:16:34;14.65;;;10.43;;
35084;SDS011;21267;51.032;6.998;2023-04-06T02:19:01;16.70;;;9.98;;
35084;SDS011;21267;51.032;6.998;2023-04-06T02:21:27;14.65;;;10.13;;
35084;SDS011;21267;51.032;6.998;2023-04-06T02:23:54;15.70;;;9.98;;
35084;SDS011;21267;51.032;6.998;2023-04-06T02:26:21;16.25;;;10.63;;
35084;SDS011;21267;51.032;6.998;2023-04-06T02:28:48;19.52;;;10.05;;
35084;SDS011;21267;51.032;6.998;2023-04-06T02:31:15;17.88;;;11.05;;
35084;SDS011;21267;51.032;6.998;2023-04-06T02:33:42;16.43;;;10.80;;
35084;SDS011;21267;51.032;6.998;2023-04-06T02:36:09;18.73;;;9.88;;
35084;SDS011;21267;51.032;6.998;2023-04-06T02:38:35;15.85;;;10.63;;
35084;SDS011;21267;51.032;6.998;2023-04-06T02:41:02;17.05;;;10.50;;
35084;SDS011;21267;51.032;6.998;2023-04-06T02:43:29;16.95;;;9.88;;
35084;SDS011;21267;51.032;6.998;2023-04-06T02:45:56;15.10;;;10.00;;
35084;SDS011;21267;51.032;6.998;2023-04-06T02:48:22;15.30;;;10.60;;
35084;SDS011;21267;51.032;6.998;2023-04-06T02:50:49;17.38;;;11.25;;
35084;SDS011;21267;51.032;6.998;2023-04-06T02:53:16;15.85;;;10.50;;
35084;SDS011;21267;51.032;6.998;2023-04-06T02:55:42;16.38;;;10.32;;
35084;SDS011;21267;51.032;6.998;2023-04-06T02:58:09;18.90;;;10.00;;
35084;SDS011;21267;51.032;6.998;2023-04-06T03:00:36;15.63;;;10.20;;
35084;SDS011;21267;51.032;6.998;2023-04-06T03:03:03;14.35;;;10.15;;
35084;SDS011;21267;51.032;6.998;2023-04-06T03:05:30;22.98;;;13.98;;
35084;SDS011;21267;51.032;6.998;2023-04-06T03:07:57;41.10;;;15.25;;
35084;SDS011;21267;51.032;6.998;2023-04-06T03:10:23;21.50;;;13.15;;
35084;SDS011;21267;51.032;6.998;2023-04-06T03:12:50;19.77;;;11.80;;
35084;SDS011;21267;51.032;6.998;2023-04-06T03:15:17;16.02;;;11.07;;
35084;SDS011;21267;51.032;6.998;2023-04-06T03:17:46;15.60;;;11.48;;
35084;SDS011;21267;51.032;6.998;2023-04-06T03:20:12;16.80;;;11.45;;
35084;SDS011;21267;51.032;6.998;2023-04-06T03:22:39;18.17;;;11.73;;
35084;SDS011;21267;51.032;6.998;2023-04-06T03:25:06;16.20;;;10.50;;
35084;SDS011;21267;51.032;6.998;2023-04-06T03:27:33;16.80;;;11.48;;
35084;SDS011;21267;51.032;6.998;2023-04-06T03:30:00;15.73;;;11.43;;
35084;SDS011;21267;51.032;6.998;2023-04-06T03:32:27;19.13;;;12.17;;
35084;SDS011;21267;51.032;6.998;2023-04-06T03:34:53;23.63;;;13.10;;
35084;SDS011;21267;51.032;6.998;2023-04-06T03:37:20;22.13;;;14.52;;
35084;SDS011;21267;51.032;6.998;2023-04-06T03:39:47;25.83;;;15.07;;
35084;SDS011;21267;51.032;6.998;2023-04-06T03:42:13;19.05;;;12.75;;
35084;SDS011;21267;51.032;6.998;2023-04-06T03:44:40;22.15;;;11.95;;
35084;SDS011;21267;51.032;6.998;2023-04-06T03:47:07;20.60;;;12.30;;
35084;SDS011;21267;51.032;6.998;2023-04-06T03:49:34;18.20;;;11.73;;
35084;SDS011;21267;51.032;6.998;2023-04-06T03:52:01;17.00;;;10.88;;
35084;SDS011;21267;51.032;6.998;2023-04-06T03:54:27;25.08;;;14.27;;
35084;SDS011;21267;51.032;6.998;2023-04-06T03:56:54;31.70;;;17.08;;
35084;SDS011;21267;51.032;6.998;2023-04-06T03:59:24;28.50;;;15.82;;
35084;SDS011;21267;51.032;6.998;2023-04-06T04:01:50;27.50;;;15.23;;
35084;SDS011;21267;51.032;6.998;2023-04-06T04:04:17;34.10;;;17.53;;
35084;SDS011;21267;51.032;6.998;2023-04-06T04:06:44;36.03;;;19.00;;
35084;SDS011;21267;51.032;6.998;2023-04-06T04:09:12;23.42;;;13.98;;
35084;SDS011;21267;51.032;6.998;2023-04-06T04:11:39;21.13;;;13.70;;
35084;SDS011;21267;51.032;6.998;2023-04-06T04:14:06;20.27;;;12.68;;
35084;SDS011;21267;51.032;6.998;2023-04-06T04:16:32;28.98;;;15.63;;
35084;SDS011;21267;51.032;6.998;2023-04-06T04:19:08;30.27;;;16.33;;
35084;SDS011;21267;51.032;6.998;2023-04-06T04:21:41;18.00;;;12.60;;
35084;SDS011;21267;51.032;6.998;2023-04-06T04:24:20;19.52;;;12.23;;
35084;SDS011;21267;51.032;6.998;2023-04-06T04:26:47;16.25;;;11.07;;
35084;SDS011;21267;51.032;6.998;2023-04-06T04:29:13;23.13;;;12.95;;
35084;SDS011;21267;51.032;6.998;2023-04-06T04:31:44;21.15;;;13.40;;
35084;SDS011;21267;51.032;6.998;2023-04-06T04:34:13;16.02;;;10.75;;
35084;SDS011;21267;51.032;6.998;2023-04-06T04:36:41;21.55;;;12.77;;
35084;SDS011;21267;51.032;6.998;2023-04-06T04:39:09;16.73;;;11.32;;
35084;SDS011;21267;51.032;6.998;2023-04-06T04:41:36;24.15;;;13.63;;
35084;SDS011;21267;51.032;6.998;2023-04-06T04:44:03;17.70;;;12.20;;
35084;SDS011;21267;51.032;6.998;2023-04-06T04:46:32;17.98;;;11.00;;
35084;SDS011;21267;51.032;6.998;2023-04-06T04:48:59;25.60;;;12.20;;
35084;SDS011;21267;51.032;6.998;2023-04-06T04:51:26;22.77;;;14.27;;
35084;SDS011;21267;51.032;6.998;2023-04-06T04:53:53;27.48;;;16.45;;
35084;SDS011;21267;51.032;6.998;2023-04-06T04:56:19;21.15;;;13.52;;
35084;SDS011;21267;51.032;6.998;2023-04-06T04:58:46;19.45;;;11.80;;
35084;SDS011;21267;51.032;6.998;2023-04-06T05:01:13;23.05;;;13.68;;
35084;SDS011;21267;51.032;6.998;2023-04-06T05:03:40;21.25;;;13.48;;
35084;SDS011;21267;51.032;6.998;2023-04-06T05:06:08;23.15;;;13.00;;
35084;SDS011;21267;51.032;6.998;2023-04-06T05:08:39;16.83;;;12.02;;
35084;SDS011;21267;51.032;6.998;2023-04-06T05:11:05;18.48;;;12.32;;
35084;SDS011;21267;51.032;6.998;2023-04-06T05:13:32;18.83;;;11.02;;
35084;SDS011;21267;51.032;6.998;2023-04-06T05:15:59;16.58;;;12.30;;
35084;SDS011;21267;51.032;6.998;2023-04-06T05:18:26;16.13;;;10.80;;
35084;SDS011;21267;51.032;6.998;2023-04-06T05:20:53;15.10;;;11.20;;
35084;SDS011;21267;51.032;6.998;2023-04-06T05:23:20;17.43;;;10.67;;
35084;SDS011;21267;51.032;6.998;2023-04-06T05:25:47;25.75;;;15.02;;
35084;SDS011;21267;51.032;6.998;2023-04-06T05:28:13;18.77;;;12.13;;
35084;SDS011;21267;51.032;6.998;2023-04-06T05:30:43;15.43;;;11.73;;
35084;SDS011;21267;51.032;6.998;2023-04-06T05:33:10;20.80;;;12.07;;
35084;SDS011;21267;51.032;6.998;2023-04-06T05:35:38;16.63;;;10.73;;
35084;SDS011;21267;51.032;6.998;2023-04-06T05:38:07;15.93;;;10.63;;
35084;SDS011;21267;51.032;6.998;2023-04-06T05:40:34;13.90;;;8.93;;
35084;SDS011;21267;51.032;6.998;2023-04-06T05:43:01;13.85;;;9.65;;
35084;SDS011;21267;51.032;6.998;2023-04-06T05:45:29;17.40;;;10.68;;
35084;SDS011;21267;51.032;6.998;2023-04-06T05:47:56;14.80;;;10.38;;
35084;SDS011;21267;51.032;6.998;2023-04-06T05:50:23;19.25;;;10.63;;
35084;SDS011;21267;51.032;6.998;2023-04-06T05:52:50;12.77;;;8.95;;
35084;SDS011;21267;51.032;6.998;2023-04-06T05:55:16;13.05;;;8.93;;
35084;SDS011;21267;51.032;6.998;2023-04-06T05:57:47;11.48;;;9.20;;
35084;SDS011;21267;51.032;6.998;2023-04-06T06:00:13;13.05;;;9.18;;
35084;SDS011;21267;51.032;6.998;2023-04-06T06:02:40;13.53;;;9.47;;
35084;SDS011;21267;51.032;6.998;2023-04-06T06:05:08;13.60;;;9.48;;
35084;SDS011;21267;51.032;6.998;2023-04-06T06:10:03;13.02;;;8.18;;
35084;SDS011;21267;51.032;6.998;2023-04-06T06:12:30;11.45;;;7.78;;
35084;SDS011;21267;51.032;6.998;2023-04-06T06:14:57;11.23;;;7.72;;
35084;SDS011;21267;51.032;6.998;2023-04-06T06:17:24;14.40;;;9.00;;
35084;SDS011;21267;51.032;6.998;2023-04-06T06:19:53;12.88;;;7.53;;
35084;SDS011;21267;51.032;6.998;2023-04-06T06:22:21;11.20;;;8.85;;
35084;SDS011;21267;51.032;6.998;2023-04-06T06:24:47;13.02;;;8.00;;
35084;SDS011;21267;51.032;6.998;2023-04-06T06:27:17;11.52;;;9.05;;
35084;SDS011;21267;51.032;6.998;2023-04-06T06:33:38;12.32;;;9.00;;
35084;SDS011;21267;51.032;6.998;2023-04-06T06:36:05;9.85;;;7.35;;
35084;SDS011;21267;51.032;6.998;2023-04-06T06:38:32;8.77;;;5.78;;
35084;SDS011;21267;51.032;6.998;2023-04-06T06:40:59;8.23;;;6.90;;
35084;SDS011;21267;51.032;6.998;2023-04-06T06:43:25;8.50;;;6.15;;
35084;SDS011;21267;51.032;6.998;2023-04-06T06:45:52;8.77;;;5.20;;
35084;SDS011;21267;51.032;6.998;2023-04-06T06:48:19;9.77;;;6.32;;
35084;SDS011;21267;51.032;6.998;2023-04-06T06:50:47;6.70;;;4.78;;
35084;SDS011;21267;51.032;6.998;2023-04-06T06:53:14;12.65;;;7.13;;
35084;SDS011;21267;51.032;6.998;2023-04-06T06:55:41;8.70;;;7.00;;
35084;SDS011;21267;51.032;6.998;2023-04-06T06:58:10;9.13;;;6.78;;
35084;SDS011;21267;51.032;6.998;2023-04-06T07:00:39;12.18;;;7.20;;
35084;SDS011;21267;51.032;6.998;2023-04-06T07:03:06;8.60;;;6.57;;
35084;SDS011;21267;51.032;6.998;2023-04-06T07:05:33;8.88;;;6.88;;
35084;SDS011;21267;51.032;6.998;2023-04-06T07:08:00;12.27;;;7.45;;
35084;SDS011;21267;51.032;6.998;2023-04-06T07:10:26;9.55;;;6.90;;
35084;SDS011;21267;51.032;6.998;2023-04-06T07:12:53;14.30;;;7.45;;
35084;SDS011;21267;51.032;6.998;2023-04-06T07:15:22;8.18;;;6.88;;
35084;SDS011;21267;51.032;6.998;2023-04-06T07:20:18;10.07;;;6.55;;
35084;SDS011;21267;51.032;6.998;2023-04-06T07:22:45;7.93;;;5.35;;
35084;SDS011;21267;51.032;6.998;2023-04-06T07:25:14;7.97;;;7.07;;
35084;SDS011;21267;51.032;6.998;2023-04-06T07:27:41;12.23;;;7.40;;
35084;SDS011;21267;51.032;6.998;2023-04-06T07:30:08;11.95;;;6.28;;
35084;SDS011;21267;51.032;6.998;2023-04-06T07:32:35;11.13;;;7.57;;
35084;SDS011;21267;51.032;6.998;2023-04-06T07:35:03;10.50;;;6.65;;
35084;SDS011;21267;51.032;6.998;2023-04-06T07:37:30;10.05;;;7.95;;
35084;SDS011;21267;51.032;6.998;2023-04-06T07:39:56;9.88;;;7.47;;
35084;SDS011;21267;51.032;6.998;2023-04-06T07:42:23;6.70;;;5.20;;
35084;SDS011;21267;51.032;6.998;2023-04-06T07:44:50;7.53;;;5.90;;
35084;SDS011;21267;51.032;6.998;2023-04-06T07:47:16;10.02;;;7.43;;
35084;SDS011;21267;51.032;6.998;2023-04-06T07:49:43;9.93;;;7.53;;
35084;SDS011;21267;51.032;6.998;2023-04-06T07:52:10;10.63;;;7.45;;
35084;SDS011;21267;51.032;6.998;2023-04-06T07:54:37;10.10;;;7.30;;
35084;SDS011;21267;51.032;6.998;2023-04-06T07:57:03;8.23;;;6.32;;
35084;SDS011;21267;51.032;6.998;2023-04-06T07:59:30;9.18;;;7.63;;
35084;SDS011;21267;51.032;6.998;2023-04-06T08:01:57;9.55;;;6.63;;
35084;SDS011;21267;51.032;6.998;2023-04-06T08:04:23;10.93;;;8.10;;
35084;SDS011;21267;51.032;6.998;2023-04-06T08:06:50;14.40;;;8.52;;
35084;SDS011;21267;51.032;6.998;2023-04-06T08:09:17;12.52;;;9.35;;
35084;SDS011;21267;51.032;6.998;2023-04-06T08:11:44;12.97;;;8.60;;
35084;SDS011;21267;51.032;6.998;2023-04-06T08:14:12;13.75;;;8.02;;
35084;SDS011;21267;51.032;6.998;2023-04-06T08:16:39;9.48;;;8.48;;
35084;SDS011;21267;51.032;6.998;2023-04-06T08:19:05;9.35;;;8.07;;
35084;SDS011;21267;51.032;6.998;2023-04-06T08:21:35;11.98;;;8.82;;
35084;SDS011;21267;51.032;6.998;2023-04-06T08:24:02;10.95;;;8.57;;
35084;SDS011;21267;51.032;6.998;2023-04-06T08:26:28;11.15;;;8.43;;
35084;SDS011;21267;51.032;6.998;2023-04-06T08:28:56;13.03;;;9.23;;
35084;SDS011;21267;51.032;6.998;2023-04-06T08:31:22;12.23;;;8.63;;
35084;SDS011;21267;51.032;6.998;2023-04-06T08:33:49;14.85;;;9.18;;
35084;SDS011;21267;51.032;6.998;2023-04-06T08:36:16;13.60;;;9.63;;
35084;SDS011;21267;51.032;6.998;2023-04-06T08:38:46;19.48;;;9.05;;
35084;SDS011;21267;51.032;6.998;2023-04-06T08:41:13;14.27;;;8.80;;
35084;SDS011;21267;51.032;6.998;2023-04-06T08:43:44;13.00;;;9.90;;
35084;SDS011;21267;51.032;6.998;2023-04-06T08:46:14;13.00;;;9.98;;
35084;SDS011;21267;51.032;6.998;2023-04-06T08:48:42;14.50;;;9.57;;
35084;SDS011;21267;51.032;6.998;2023-04-06T08:51:09;12.45;;;9.90;;
35084;SDS011;21267;51.032;6.998;2023-04-06T08:53:37;12.38;;;10.00;;
35084;SDS011;21267;51.032;6.998;2023-04-06T08:56:04;12.73;;;9.63;;
35084;SDS011;21267;51.032;6.998;2023-04-06T08:58:34;16.52;;;8.63;;
35084;SDS011;21267;51.032;6.998;2023-04-06T09:01:07;12.52;;;9.57;;
35084;SDS011;21267;51.032;6.998;2023-04-06T09:03:38;13.88;;;9.73;;
35084;SDS011;21267;51.032;6.998;2023-04-06T09:06:07;12.43;;;9.45;;
35084;SDS011;21267;51.032;6.998;2023-04-06T09:08:35;12.32;;;10.70;;
35084;SDS011;21267;51.032;6.998;2023-04-06T09:11:04;18.10;;;10.15;;
35084;SDS011;21267;51.032;6.998;2023-04-06T09:13:31;21.55;;;11.85;;
35084;SDS011;21267;51.032;6.998;2023-04-06T09:16:02;14.10;;;9.63;;
35084;SDS011;21267;51.032;6.998;2023-04-06T09:18:33;13.32;;;10.25;;
35084;SDS011;21267;51.032;6.998;2023-04-06T09:21:00;14.15;;;10.68;;
35084;SDS011;21267;51.032;6.998;2023-04-06T09:23:29;16.88;;;10.40;;
35084;SDS011;21267;51.032;6.998;2023-04-06T09:26:06;14.10;;;9.00;;
35084;SDS011;21267;51.032;6.998;2023-04-06T09:28:47;15.30;;;10.55;;
35084;SDS011;21267;51.032;6.998;2023-04-06T09:31:20;13.75;;;10.02;;
35084;SDS011;21267;51.032;6.998;2023-04-06T09:33:50;14.55;;;11.18;;
35084;SDS011;21267;51.032;6.998;2023-04-06T09:36:18;14.43;;;9.32;;
35084;SDS011;21267;51.032;6.998;2023-04-06T09:38:55;14.37;;;9.87;;
35084;SDS011;21267;51.032;6.998;2023-04-06T09:41:24;14.00;;;11.48;;
35084;SDS011;21267;51.032;6.998;2023-04-06T09:44:01;15.48;;;11.27;;
35084;SDS011;21267;51.032;6.998;2023-04-06T09:46:30;19.73;;;12.35;;
35084;SDS011;21267;51.032;6.998;2023-04-06T09:49:16;15.63;;;10.05;;
35084;SDS011;21267;51.032;6.998;2023-04-06T09:51:46;17.13;;;11.45;;
35084;SDS011;21267;51.032;6.998;2023-04-06T09:54:16;16.67;;;11.52;;
35084;SDS011;21267;51.032;6.998;2023-04-06T09:59:14;17.40;;;11.00;;
35084;SDS011;21267;51.032;6.998;2023-04-06T10:01:48;15.90;;;11.48;;
35084;SDS011;21267;51.032;6.998;2023-04-06T10:04:30;14.88;;;11.30;;
35084;SDS011;21267;51.032;6.998;2023-04-06T10:07:22;16.90;;;11.30;;
35084;SDS011;21267;51.032;6.998;2023-04-06T10:09:49;21.33;;;12.20;;
35084;SDS011;21267;51.032;6.998;2023-04-06T10:12:17;17.92;;;12.70;;
35084;SDS011;21267;51.032;6.998;2023-04-06T10:14:45;17.77;;;12.35;;
35084;SDS011;21267;51.032;6.998;2023-04-06T10:17:12;18.43;;;11.57;;
35084;SDS011;21267;51.032;6.998;2023-04-06T10:19:47;16.80;;;12.15;;
35084;SDS011;21267;51.032;6.998;2023-04-06T10:23:04;17.75;;;12.05;;
35084;SDS011;21267;51.032;6.998;2023-04-06T10:25:29;14.57;;;11.45;;
35084;SDS011;21267;51.032;6.998;2023-04-06T10:28:15;17.73;;;12.23;;
35084;SDS011;21267;51.032;6.998;2023-04-06T10:30:45;18.20;;;11.73;;
35084;SDS011;21267;51.032;6.998;2023-04-06T10:33:13;16.92;;;12.48;;
35084;SDS011;21267;51.032;6.998;2023-04-06T10:35:40;17.20;;;11.75;;
35084;SDS011;21267;51.032;6.998;2023-04-06T10:38:07;17.23;;;12.97;;
35084;SDS011;21267;51.032;6.998;2023-04-06T10:40:38;15.18;;;12.02;;
35084;SDS011;21267;51.032;6.998;2023-04-06T10:45:41;17.75;;;12.77;;
35084;SDS011;21267;51.032;6.998;2023-04-06T10:48:16;17.35;;;12.32;;
35084;SDS011;21267;51.032;6.998;2023-04-06T10:50:44;17.33;;;12.30;;
35084;SDS011;21267;51.032;6.998;2023-04-06T10:53:25;16.55;;;12.45;;
35084;SDS011;21267;51.032;6.998;2023-04-06T10:55:55;16.63;;;12.98;;
35084;SDS011;21267;51.032;6.998;2023-04-06T10:58:24;17.40;;;12.20;;
35084;SDS011;21267;51.032;6.998;2023-04-06T11:00:52;14.60;;;9.77;;
35084;SDS011;21267;51.032;6.998;2023-04-06T11:03:22;19.88;;;12.02;;
35084;SDS011;21267;51.032;6.998;2023-04-06T11:05:49;15.05;;;11.50;;
35084;SDS011;21267;51.032;6.998;2023-04-06T11:08:27;16.40;;;11.15;;
35084;SDS011;21267;51.032;6.998;2023-04-06T11:11:05;16.98;;;10.88;;
35084;SDS011;21267;51.032;6.998;2023-04-06T11:13:51;20.83;;;13.73;;
35084;SDS011;21267;51.032;6.998;2023-04-06T11:16:22;20.85;;;12.63;;
35084;SDS011;21267;51.032;6.998;2023-04-06T11:18:56;18.23;;;12.30;;
35084;SDS011;21267;51.032;6.998;2023-04-06T11:21:36;18.25;;;12.80;;
35084;SDS011;21267;51.032;6.998;2023-04-06T11:24:06;17.52;;;12.77;;
35084;SDS011;21267;51.032;6.998;2023-04-06T11:26:56;18.38;;;13.77;;
35084;SDS011;21267;51.032;6.998;2023-04-06T11:29:30;19.40;;;11.75;;
35084;SDS011;21267;51.032;6.998;2023-04-06T11:31:59;17.90;;;12.43;;
35084;SDS011;21267;51.032;6.998;2023-04-06T11:34:28;17.95;;;12.23;;
35084;SDS011;21267;51.032;6.998;2023-04-06T11:36:58;16.65;;;11.80;;
35084;SDS011;21267;51.032;6.998;2023-04-06T11:39:27;14.30;;;10.68;;
35084;SDS011;21267;51.032;6.998;2023-04-06T11:41:55;19.23;;;14.02;;
35084;SDS011;21267;51.032;6.998;2023-04-06T11:44:34;17.60;;;12.45;;
35084;SDS011;21267;51.032;6.998;2023-04-06T11:47:02;18.60;;;13.27;;
35084;SDS011;21267;51.032;6.998;2023-04-06T11:49:30;18.67;;;13.77;;
35084;SDS011;21267;51.032;6.998;2023-04-06T11:51:58;19.63;;;12.38;;
35084;SDS011;21267;51.032;6.998;2023-04-06T11:54:35;19.30;;;11.90;;
35084;SDS011;21267;51.032;6.998;2023-04-06T11:57:04;18.20;;;12.55;;
35084;SDS011;21267;51.032;6.998;2023-04-06T11:59:31;16.17;;;11.77;;
35084;SDS011;21267;51.032;6.998;2023-04-06T12:01:58;14.35;;;11.55;;
35084;SDS011;21267;51.032;6.998;2023-04-06T12:04:25;20.50;;;13.23;;
35084;SDS011;21267;51.032;6.998;2023-04-06T12:09:19;18.05;;;13.10;;
35084;SDS011;21267;51.032;6.998;2023-04-06T12:11:46;17.27;;;11.35;;
35084;SDS011;21267;51.032;6.998;2023-04-06T12:14:13;17.48;;;14.18;;
35084;SDS011;21267;51.032;6.998;2023-04-06T12:16:41;20.92;;;11.75;;
35084;SDS011;21267;51.032;6.998;2023-04-06T12:19:08;13.70;;;10.30;;
35084;SDS011;21267;51.032;6.998;2023-04-06T12:21:34;14.98;;;11.38;;
35084;SDS011;21267;51.032;6.998;2023-04-06T12:24:04;14.57;;;9.85;;
35084;SDS011;21267;51.032;6.998;2023-04-06T12:26:32;13.70;;;9.57;;
35084;SDS011;21267;51.032;6.998;2023-04-06T12:28:59;15.15;;;10.23;;
35084;SDS011;21267;51.032;6.998;2023-04-06T12:31:36;20.25;;;13.02;;
35084;SDS011;21267;51.032;6.998;2023-04-06T12:34:05;17.85;;;11.88;;
35084;SDS011;21267;51.032;6.998;2023-04-06T12:36:32;14.60;;;10.50;;
35084;SDS011;21267;51.032;6.998;2023-04-06T12:38:59;14.43;;;10.27;;
35084;SDS011;21267;51.032;6.998;2023-04-06T12:41:27;15.02;;;10.27;;
35084;SDS011;21267;51.032;6.998;2023-04-06T12:43:54;17.23;;;12.25;;
35084;SDS011;21267;51.032;6.998;2023-04-06T12:46:21;15.13;;;11.07;;
35084;SDS011;21267;51.032;6.998;2023-04-06T12:48:51;15.60;;;12.02;;
35084;SDS011;21267;51.032;6.998;2023-04-06T12:51:22;15.18;;;9.88;;
35084;SDS011;21267;51.032;6.998;2023-04-06T12:53:48;16.20;;;10.30;;
35084;SDS011;21267;51.032;6.998;2023-04-06T12:56:16;16.23;;;11.23;;
35084;SDS011;21267;51.032;6.998;2023-04-06T12:58:44;18.48;;;12.77;;
35084;SDS011;21267;51.032;6.998;2023-04-06T13:01:12;17.05;;;12.13;;
35084;SDS011;21267;51.032;6.998;2023-04-06T13:03:40;17.17;;;11.68;;
35084;SDS011;21267;51.032;6.998;2023-04-06T13:06:07;15.05;;;8.77;;
35084;SDS011;21267;51.032;6.998;2023-04-06T13:08:38;17.50;;;10.98;;
35084;SDS011;21267;51.032;6.998;2023-04-06T13:11:06;17.02;;;9.50;;
35084;SDS011;21267;51.032;6.998;2023-04-06T13:13:35;17.25;;;11.20;;
35084;SDS011;21267;51.032;6.998;2023-04-06T13:18:36;13.20;;;7.22;;
35084;SDS011;21267;51.032;6.998;2023-04-06T13:21:05;14.98;;;10.05;;
35084;SDS011;21267;51.032;6.998;2023-04-06T13:23:33;17.73;;;9.82;;
35084;SDS011;21267;51.032;6.998;2023-04-06T13:28:29;8.93;;;5.93;;
35084;SDS011;21267;51.032;6.998;2023-04-06T13:30:57;17.43;;;10.03;;
35084;SDS011;21267;51.032;6.998;2023-04-06T13:33:25;10.57;;;6.82;;
35084;SDS011;21267;51.032;6.998;2023-04-06T13:35:52;7.68;;;5.78;;
35084;SDS011;21267;51.032;6.998;2023-04-06T13:38:19;11.27;;;7.15;;
35084;SDS011;21267;51.032;6.998;2023-04-06T13:40:46;7.25;;;5.55;;
35084;SDS011;21267;51.032;6.998;2023-04-06T13:43:13;13.00;;;7.90;;
35084;SDS011;21267;51.032;6.998;2023-04-06T13:45:39;13.85;;;8.23;;
35084;SDS011;21267;51.032;6.998;2023-04-06T13:48:06;11.65;;;7.68;;
35084;SDS011;21267;51.032;6.998;2023-04-06T13:50:33;10.93;;;8.20;;
35084;SDS011;21267;51.032;6.998;2023-04-06T13:53:00;11.98;;;9.07;;
35084;SDS011;21267;51.032;6.998;2023-04-06T13:55:27;9.60;;;7.93;;
35084;SDS011;21267;51.032;6.998;2023-04-06T13:57:54;17.92;;;10.65;;
35084;SDS011;21267;51.032;6.998;2023-04-06T14:00:21;11.93;;;7.43;;
35084;SDS011;21267;51.032;6.998;2023-04-06T14:02:48;12.48;;;8.63;;
35084;SDS011;21267;51.032;6.998;2023-04-06T14:05:15;18.90;;;10.10;;
35084;SDS011;21267;51.032;6.998;2023-04-06T14:07:42;11.60;;;6.10;;
35084;SDS011;21267;51.032;6.998;2023-04-06T14:10:08;15.27;;;9.88;;
35084;SDS011;21267;51.032;6.998;2023-04-06T14:12:43;14.05;;;8.50;;
35084;SDS011;21267;51.032;6.998;2023-04-06T14:15:11;12.13;;;9.45;;
35084;SDS011;21267;51.032;6.998;2023-04-06T14:17:38;29.00;;;10.60;;
35084;SDS011;21267;51.032;6.998;2023-04-06T14:20:06;12.50;;;9.15;;
35084;SDS011;21267;51.032;6.998;2023-04-06T14:22:33;11.07;;;7.28;;
35084;SDS011;21267;51.032;6.998;2023-04-06T14:25:00;9.20;;;7.93;;
35084;SDS011;21267;51.032;6.998;2023-04-06T14:27:27;10.15;;;7.38;;
35084;SDS011;21267;51.032;6.998;2023-04-06T14:29:54;10.27;;;7.53;;
35084;SDS011;21267;51.032;6.998;2023-04-06T14:32:21;9.50;;;7.47;;
35084;SDS011;21267;51.032;6.998;2023-04-06T14:34:48;12.63;;;8.65;;
35084;SDS011;21267;51.032;6.998;2023-04-06T14:37:15;11.52;;;7.78;;
35084;SDS011;21267;51.032;6.998;2023-04-06T14:39:43;12.35;;;7.60;;
35084;SDS011;21267;51.032;6.998;2023-04-06T14:42:13;7.78;;;5.82;;
35084;SDS011;21267;51.032;6.998;2023-04-06T14:44:39;7.75;;;6.35;;
35084;SDS011;21267;51.032;6.998;2023-04-06T14:47:11;9.48;;;6.85;;
35084;SDS011;21267;51.032;6.998;2023-04-06T14:49:41;7.80;;;6.70;;
35084;SDS011;21267;51.032;6.998;2023-04-06T14:52:11;7.95;;;5.78;;
35084;SDS011;21267;51.032;6.998;2023-04-06T14:54:37;7.72;;;6.18;;
35084;SDS011;21267;51.032;6.998;2023-04-06T14:57:08;7.07;;;5.78;;
35084;SDS011;21267;51.032;6.998;2023-04-06T14:59:34;9.40;;;6.60;;
35084;SDS011;21267;51.032;6.998;2023-04-06T15:02:05;8.25;;;6.43;;